D/T METAR WX W/DIR W/SPE G/SPE TEMP DEWP
22/01/20 07:20 EGPI 220720Z AUTO 28011KT 1700 BR BKN002/// BKN006/// 09/09 Q1038 BR W (280°) 12.7mph 9°C 9°C
22/01/20 06:50 EGPI 220650Z AUTO 28010KT 3100 BR OVC002/// 09/09 Q1038 BR W (280°) 11.5mph 9°C 9°C
22/01/20 06:20 EGPI 220620Z AUTO 29010KT 6000 OVC002/// 09/09 Q1038 WNW (290°) 11.5mph 9°C 9°C
22/01/20 05:50 EGPI 220550Z AUTO 29014KT 260V320 5000 OVC002/// 09/09 Q1038 WNW (290°) 16.1mph 9°C 9°C
22/01/20 05:20 EGPI 220520Z AUTO 28009KT 250V310 0700 FG OVC002/// 09/09 Q1038 FG W (280°) 10.4mph 9°C 9°C
22/01/20 04:50 EGPI 220450Z AUTO 27005KT 230V300 1300 BR OVC002/// 09/09 Q1038 BR W (270°) 5.8mph 9°C 9°C
22/01/20 04:20 EGPI 220420Z AUTO VRB01KT 1900 BR OVC002/// 09/09 Q1038 RERA BR N (0°) 1.2mph 9°C 9°C
22/01/20 03:50 EGPI 220350Z AUTO 13004KT 090V160 1600 BR OVC002/// 09/09 Q1039 RERA BR SE (130°) 4.6mph 9°C 9°C
22/01/20 03:20 EGPI 220320Z AUTO VRB02KT 0500 FG OVC002/// 09/09 Q1039 FG N (0°) 2.3mph 9°C 9°C
22/01/20 02:50 EGPI 220250Z AUTO VRB02KT 0550 FG OVC002/// 09/09 Q1039 FG N (0°) 2.3mph 9°C 9°C
22/01/20 02:20 EGPI 220220Z AUTO VRB02KT 1800 BR OVC002/// 09/09 Q1039 BR N (0°) 2.3mph 9°C 9°C
22/01/20 01:50 EGPI 220150Z AUTO 26009KT 4400 BR OVC002/// 09/09 Q1039 BR W (260°) 10.4mph 9°C 9°C
22/01/20 01:20 EGPI 220120Z AUTO VRB02KT 5000 OVC002/// 09/09 Q1039 N (0°) 2.3mph 9°C 9°C
22/01/20 00:50 EGPI 220050Z AUTO VRB03KT 5000 OVC002/// 09/09 Q1039 N (0°) 3.5mph 9°C 9°C
22/01/20 00:20 EGPI 220020Z AUTO 28007KT 0800 FG OVC002/// 09/09 Q1039 FG W (280°) 8.1mph 9°C 9°C
21/01/20 23:50 EGPI 212350Z AUTO 28008KT 3900 BR OVC002/// 09/09 Q1039 BR W (280°) 9.2mph 9°C 9°C
21/01/20 23:20 EGPI 212320Z AUTO 28009KT 8000 OVC003/// 09/09 Q1039 W (280°) 10.4mph 9°C 9°C
21/01/20 22:50 EGPI 212250Z AUTO 26010KT 7000 OVC004/// 09/09 Q1039 W (260°) 11.5mph 9°C 9°C
21/01/20 22:20 EGPI 212220Z AUTO 26009KT 7000 OVC002/// 09/09 Q1039 W (260°) 10.4mph 9°C 9°C
21/01/20 21:50 EGPI 212150Z AUTO 26009KT 5000 OVC002/// 09/09 Q1039 W (260°) 10.4mph 9°C 9°C
21/01/20 21:20 EGPI 212120Z AUTO 26009KT 230V290 0900 OVC002/// 09/09 Q1039 W (260°) 10.4mph 9°C 9°C
21/01/20 20:50 EGPI 212050Z AUTO 26010KT 230V290 0700 FG OVC002/// 09/09 Q1039 FG W (260°) 11.5mph 9°C 9°C
21/01/20 20:20 EGPI 212020Z AUTO 26009KT 0450 FG VV/// 09/09 Q1039 FG W (260°) 10.4mph 9°C 9°C
21/01/20 19:50 EGPI 211950Z AUTO 25008KT 220V280 0400 FG OVC002/// 09/09 Q1039 FG WSW (250°) 9.2mph 9°C 9°C
21/01/20 19:20 EGPI 211920Z AUTO 25009KT 0750 FG OVC002/// 09/09 Q1038 FG WSW (250°) 10.4mph 9°C 9°C
21/01/20 18:50 EGPI 211850Z AUTO 26009KT 230V290 1900 -RADZ BKN002/// 09/09 Q1038 -RA -DZ W (260°) 10.4mph 9°C 9°C
21/01/20 18:20 EGPI 211820Z AUTO 26011KT 6000 BKN002/// SCT010/// BKN017/// 09/09 Q1038 W (260°) 12.7mph 9°C 9°C
21/01/20 17:50 EGPI 211750Z AUTO 27013KT 4100 BR BKN002/// BKN018/// 09/09 Q1038 BR W (270°) 15.0mph 9°C 9°C
21/01/20 17:20 EGPI 211720Z AUTO 26014KT 3700 BR OVC002/// 09/09 Q1038 BR W (260°) 16.1mph 9°C 9°C
21/01/20 16:50 EGPI 211650Z 25013KT 4000 -DZ BR OVC002 09/09 Q1038 -DZ BR WSW (250°) 15.0mph 9°C 9°C
21/01/20 16:20 EGPI 211620Z 26012KT 3000 -RADZ BR OVC002 09/09 Q1038 -RA -DZ BR W (260°) 13.8mph 9°C 9°C
21/01/20 15:50 EGPI 211550Z 25011KT 2500 -RADZ BR OVC002 09/09 Q1038 -RA -DZ BR WSW (250°) 12.7mph 9°C 9°C
21/01/20 15:20 EGPI 211520Z 25010KT 3500 BR OVC003 09/09 Q1038 BR WSW (250°) 11.5mph 9°C 9°C
21/01/20 14:50 EGPI 211450Z 25010KT 6000 OVC004 09/09 Q1038 WSW (250°) 11.5mph 9°C 9°C
21/01/20 14:20 EGPI 211420Z 26009KT 230V290 6000 OVC003 09/09 Q1039 W (260°) 10.4mph 9°C 9°C
21/01/20 13:50 EGPI 211350Z AUTO 26010KT 2300 BR OVC002/// 09/09 Q1039 BR W (260°) 11.5mph 9°C 9°C
21/01/20 13:20 EGPI 211320Z AUTO 25011KT 4800 BR OVC003/// 09/09 Q1039 RERA BR WSW (250°) 12.7mph 9°C 9°C
21/01/20 12:50 EGPI 211250Z 25012KT 6000 OVC003 09/09 Q1039 WSW (250°) 13.8mph 9°C 9°C
21/01/20 12:20 EGPI 211220Z 25012KT 4000 BR OVC004 09/09 Q1039 BR WSW (250°) 13.8mph 9°C 9°C
21/01/20 11:50 EGPI 211150Z 24012KT 3000 DZ BR OVC004 09/09 Q1039 DZ BR WSW (240°) 13.8mph 9°C 9°C
21/01/20 11:20 EGPI 211120Z 24012KT 4800 BR OVC004 09/09 Q1039 BR WSW (240°) 13.8mph 9°C 9°C
21/01/20 10:50 EGPI 211050Z 24011KT 3000 DZ BR OVC004 09/09 Q1039 DZ BR WSW (240°) 12.7mph 9°C 9°C
21/01/20 10:20 EGPI 211020Z 24012KT 210V270 4500 BR OVC004 09/09 Q1039 BR WSW (240°) 13.8mph 9°C 9°C
21/01/20 09:50 EGPI 210950Z 24010KT 4800 BR OVC004 09/09 Q1039 BR WSW (240°) 11.5mph 9°C 9°C
21/01/20 09:20 EGPI 210920Z AUTO 24011KT 5000 BR OVC002/// 09/09 Q1039 RERA BR WSW (240°) 12.7mph 9°C 9°C
21/01/20 08:50 EGPI 210850Z AUTO 24012KT 200V260 2600 BR OVC002/// 09/09 Q1039 RERA BR WSW (240°) 13.8mph 9°C 9°C
21/01/20 08:20 EGPI 210820Z 24011KT 3000 DZ BR OVC004 09/09 Q1039 DZ BR WSW (240°) 12.7mph 9°C 9°C
21/01/20 07:50 EGPI 210750Z AUTO 24012KT 4600 BR OVC003/// 09/09 Q1039 RERA BR WSW (240°) 13.8mph 9°C 9°C